Latest Coastal Weather Observations for Yamba

IDN60701

Issued at 6:55 am EST Tuesday 2 September 2014 (issued every 10 minutes, with the page automatically refreshed every 10 minutes)

About coastal observations | Map of coastal stations | Coastal observations for NSW | Marine services | Other Formats
Station Details ID: 058012 Name: YAMBA PILOT STATION Lat: -29.43 Lon: 153.36 Height: 27.4 m
Data from the previous 72 hours. | See also: Recent months at Yamba
Date/Time
EST
Temp

°C
Wind Pressure Rain
since 9am
mm
Weather Cloud Vis
km
Sea
Height
m
Swell
Dir
 
Speed
knots
Gust
knots
hPa Trend Height
m
Period
s
Dir
02/06:30am 16.0 NW 5 6 1011.0 - 0.0 - - - - - - -
02/06:00am 16.1 NW 7 10 1011.1 - 0.0 - - - - - - -
02/05:30am 16.2 NW 8 10 1011.4 - 0.0 - - - - - - -
02/05:00am 15.9 NW 7 10 1011.3 - 0.0 - - - - - - -
02/04:30am 15.4 NW 5 7 1011.8 - 0.0 - - - - - - -
02/04:00am 15.4 WNW 7 9 1011.6 - 0.0 - - - - - - -
02/03:30am 15.6 NW 6 8 1011.8 - 0.0 - - - - - - -
02/03:00am 15.2 N 5 6 1012.1 - 0.0 - - - - - - -
02/02:30am 15.2 N 4 5 1012.3 - 0.0 - - - - - - -
02/02:00am 16.0 NNW 5 8 1012.6 - 0.0 - - - - - - -
02/01:30am 15.8 NNW 5 7 1012.8 - 0.0 - - - - - - -
02/01:00am 16.0 NNW 6 8 1013.0 - 0.0 - - - - - - -
02/12:30am 16.0 NW 5 8 1013.5 - 0.0 - - - - - - -
02/12:00am 16.0 NW 5 8 1013.7 - 0.0 - - - - - - -
 
Date/Time
EST
Temp

°C
Wind Pressure Rain
since 9am
mm
Weather Cloud Vis
km
Sea
Height
m
Swell
Dir
 
Speed
knots
Gust
knots
hPa Trend Height
m
Period
s
Dir
01/11:30pm 16.2 NW 5 7 1014.0 - 0.0 - - - - - - -
01/11:00pm 16.4 NW 6 9 1014.1 - 0.0 - - - - - - -
01/10:30pm 16.5 NW 6 10 1014.1 - 0.0 - - - - - - -
01/10:00pm 16.5 NNW 4 6 1014.1 - 0.0 - - - - - - -
01/09:30pm 17.3 NNW 5 7 1014.4 - 0.0 - - - - - - -
01/09:00pm 18.1 NNW 7 11 1014.6 - 0.0 - - - - - - -
01/08:30pm 18.8 N 7 11 1014.5 - 0.0 - - - - - - -
01/08:00pm 19.0 N 7 13 1014.7 - 0.0 - - - - - - -
01/07:30pm 19.2 N 8 14 1014.5 - 0.0 - - - - - - -
01/07:00pm 19.1 N 8 12 1014.4 - 0.0 - - - - - - -
01/06:30pm 19.1 N 7 13 1014.1 - 0.0 - - - - - - -
01/06:00pm 19.2 N 8 13 1013.8 - 0.0 - - - - - - -
01/05:30pm 19.3 N 8 14 1013.8 - 0.0 - - - - - - -
01/05:00pm 19.9 N 7 13 1013.8 - 0.0 - - - - - - -
01/04:30pm 20.2 N 7 13 1013.6 - 0.0 - - - - - - -
01/04:00pm 20.8 NNE 8 14 1013.7 - 0.0 - - - - - - -
01/03:30pm 21.1 NNE 8 13 1013.8 - 0.0 - - - - - - -
01/03:00pm 22.0 N 8 12 1014.0 F 0.0 Fine Mostly clear 40 1 1.0 7 NE
01/02:30pm 22.4 N 8 13 1014.4 - 0.0 - - - - - - -
01/02:00pm 22.3 N 6 10 1014.8 - 0.0 - - - - - - -
01/01:30pm 22.0 NNE 6 11 1015.2 - 0.0 - - - - - - -
01/01:00pm 21.4 NE 6 11 1015.4 - 0.0 - - - - - - -
01/12:30pm 21.9 NE 6 10 1015.8 - 0.0 - - - - - - -
01/12:00pm 22.5 NNE 5 7 1016.5 - 0.0 - - - - - - -
01/11:30am 22.3 NNE 4 7 1017.2 - 0.0 - - - - - - -
01/11:00am 22.3 N 5 8 1017.8 - 0.0 - - - - - - -
01/10:30am 19.9 NE 5 6 1018.3 - 0.0 - - - - - - -
01/10:00am 19.7 ENE 4 5 1018.6 - 0.0 - - - - - - -
01/09:30am 19.6 WNW 5 6 1018.9 - 0.0 - - - - - - -
01/09:00am 19.0 NW 4 5 1019.0 F 0.0 Fine Mostly clear 35 1 1.0 7 SE
01/08:30am 17.5 WNW 2 4 1019.1 - 0.0 - - - - - - -
01/08:00am 16.4 SW 3 4 1019.0 - 0.0 - - - - - - -
01/07:30am 15.7 SW 1 4 1018.9 - 0.0 - - - - - - -
01/07:00am 14.9 WSW 3 5 1018.7 - 0.0 - - - - - - -
01/06:30am 14.6 WSW 5 7 1018.6 - 0.0 - - - - - - -
01/06:00am 14.6 W 5 6 1018.2 - 0.0 - - - - - - -
01/05:30am 14.7 WSW 5 6 1017.8 - 0.0 - - - - - - -
01/05:00am 14.6 WSW 5 6 1017.7 - 0.0 - - - - - - -
01/04:30am 14.6 WSW 5 6 1017.6 - 0.0 - - - - - - -
01/04:00am 14.8 WSW 5 6 1017.6 - 0.0 - - - - - - -
01/03:30am 15.0 WSW 4 5 1017.5 - 0.0 - - - - - - -
01/03:00am 15.1 WSW 5 6 1017.6 - 0.0 - - - - - - -
01/02:30am 15.3 WSW 3 5 1017.8 - 0.0 - - - - - - -
01/02:00am 15.6 WSW 4 5 1017.9 - 0.0 - - - - - - -
01/01:30am 15.7 WSW 4 5 1018.2 - 0.0 - - - - - - -
01/01:00am 15.8 W 5 6 1018.4 - 0.0 - - - - - - -
01/12:30am 15.8 W 5 6 1018.5 - 0.0 - - - - - - -
01/12:00am 15.8 W 4 6 1018.4 - 0.0 - - - - - - -
 
Date/Time
EST
Temp

°C
Wind Pressure Rain
since 9am
mm
Weather Cloud Vis
km
Sea
Height
m
Swell
Dir
 
Speed
knots
Gust
knots
hPa Trend Height
m
Period
s
Dir
31/11:30pm 15.9 WSW 5 6 1018.4 - 0.0 - - - - - - -
31/11:00pm 16.2 SW 4 6 1018.4 - 0.0 - - - - - - -
31/10:30pm 16.6 SW 4 5 1018.6 - 0.0 - - - - - - -
31/10:00pm 16.8 SSW 4 5 1018.7 - 0.0 - - - - - - -
31/09:30pm 18.0 SSE 6 9 1018.6 - 0.0 - - - - - - -
31/09:00pm 18.0 SE 8 10 1018.6 - 0.0 - - - - - - -
31/08:30pm 18.0 SE 9 11 1018.7 - 0.0 - - - - - - -
31/08:00pm 18.0 SE 12 14 1018.3 - 0.0 - - - - - - -
31/07:30pm 18.1 SE 12 15 1018.3 - 0.0 - - - - - - -
31/07:00pm 18.1 SE 14 17 1017.9 - 0.0 - - - - - - -
31/06:30pm 18.1 SE 13 16 1017.6 - 0.0 - - - - - - -
31/06:00pm 18.1 SE 14 18 1017.2 - 0.0 - - - - - - -
31/05:30pm 18.2 SE 14 17 1017.0 - 0.0 - - - - - - -
31/05:00pm 18.5 SE 14 19 1016.8 - 0.0 - - - - - - -
31/04:30pm 18.7 SE 15 17 1016.7 - 0.0 - - - - - - -
31/04:00pm 19.1 SE 14 17 1016.6 - 0.0 - - - - - - -
31/03:30pm 19.4 SE 13 16 1016.4 - 0.0 - - - - - - -
31/03:00pm 19.9 SE 12 15 1016.4 S 0.0 Fine Mostly clear 40 1 2.0 9 SE
31/02:30pm 19.9 SE 11 13 1016.6 - 0.0 - - - - - - -
31/02:00pm 19.9 SE 13 16 1016.7 - 0.0 - - - - - - -
31/01:30pm 19.9 SE 12 15 1017.0 - 0.0 - - - - - - -
31/01:00pm 20.2 SE 13 16 1017.3 - 0.0 - - - - - - -
31/12:30pm 20.5 SE 11 14 1017.7 - 0.0 - - - - - - -
31/12:00pm 20.4 SE 11 16 1017.9 - 0.0 - - - - - - -
31/11:30am 20.4 SE 12 16 1018.1 - 0.0 - - - - - - -
31/11:00am 19.9 SSE 10 14 1018.4 - 0.0 - - - - - - -
31/10:30am 19.9 S 5 8 1018.7 - 0.0 - - - - - - -
31/10:00am 19.9 SSW 6 11 1018.9 - 0.0 - - - - - - -
31/09:30am 19.0 WSW 5 7 1019.2 - 0.0 - - - - - - -
31/09:00am 18.3 SW 4 7 1019.2 F 0.0 Fine Mostly clear 40 1 2.0 8 SE
31/08:30am 16.9 WSW 5 8 1019.4 - 0.0 - - - - - - -
31/08:00am 16.1 WSW 5 8 1019.3 - 0.0 - - - - - - -
31/07:30am 14.8 WSW 5 8 1019.1 - 0.0 - - - - - - -
31/07:00am 13.8 SW 4 8 1019.1 - 0.0 - - - - - - -
31/06:30am 13.7 WSW 5 7 1018.9 - 0.0 - - - - - - -
31/06:00am 13.8 SW 5 8 1018.4 - 0.0 - - - - - - -
31/05:30am 13.6 WSW 5 7 1018.3 - 0.0 - - - - - - -
31/05:00am 13.7 W 5 7 1018.0 - 0.0 - - - - - - -
31/04:30am 13.5 W 5 6 1017.8 - 0.0 - - - - - - -
31/04:00am 13.6 W 4 6 1017.6 - 0.0 - - - - - - -
31/03:30am 13.9 W 4 5 1017.4 - 0.0 - - - - - - -
31/03:00am 14.5 SW 5 8 1017.4 - 0.0 - - - - - - -
31/02:30am 14.5 WSW 3 5 1017.5 - 0.0 - - - - - - -
31/02:00am 15.1 SW 4 5 1017.8 - 0.0 - - - - - - -
31/01:30am 15.7 SW 5 8 1017.9 - 0.0 - - - - - - -
31/01:00am 15.6 SSW 5 7 1018.1 - 0.0 - - - - - - -
31/12:30am 14.9 SW 4 6 1018.1 - 0.0 - - - - - - -
31/12:00am 14.5 WSW 4 5 1018.2 - 0.0 - - - - - - -
 
Date/Time
EST
Temp

°C
Wind Pressure Rain
since 9am
mm
Weather Cloud Vis
km
Sea
Height
m
Swell
Dir
 
Speed
knots
Gust
knots
hPa Trend Height
m
Period
s
Dir
30/11:30pm 15.5 SW 4 5 1018.3 - 0.0 - - - - - - -
30/11:00pm 15.6 SW 4 6 1018.3 - 0.0 - - - - - - -
30/10:30pm 15.9 SSW 6 9 1018.3 - 0.0 - - - - - - -
30/10:00pm 16.5 S 8 11 1018.2 - 0.0 - - - - - - -
30/09:30pm 16.2 S 7 10 1018.2 - 0.0 - - - - - - -
30/09:00pm 15.9 S 6 9 1018.2 - 0.0 - - - - - - -
30/08:30pm 16.4 S 6 9 1018.2 - 0.0 - - - - - - -
30/08:00pm 16.8 S 6 9 1018.0 - 0.0 - - - - - - -
30/07:30pm 17.3 SSE 7 9 1017.9 - 0.0 - - - - - - -
30/07:00pm 17.6 SSE 7 10 1017.7 - 0.0 - - - - - - -
30/06:30pm 17.7 S 8 11 1017.6 - 0.0 - - - - - - -
30/06:00pm 18.3 S 9 14 1017.3 - 0.0 - - - - - - -
30/05:30pm 18.6 SSE 11 18 1017.2 - 0.0 - - - - - - -
30/05:00pm 18.9 SSE 10 15 1017.0 - 0.0 - - - - - - -
30/04:30pm 19.3 SSE 11 16 1016.7 - 0.0 - - - - - - -
30/04:00pm 19.6 SSE 11 16 1016.6 - 0.0 - - - - - - -
30/03:30pm 20.1 SSE 11 15 1016.6 - 0.0 - - - - - - -
30/03:00pm 19.8 SSE 11 15 1016.5 F 0.0 Fine Partly cloudy 40 2 2.5 9 SE
30/02:30pm 20.0 SSE 11 21 1016.6 - 0.0 - - - - - - -
30/02:00pm 20.3 SSE 12 17 1016.7 - 0.0 - - - - - - -
30/01:30pm 20.5 SSE 13 23 1017.1 - 0.0 - - - - - - -
30/01:00pm 20.4 SSE 13 19 1017.4 - 0.0 - - - - - - -
30/12:30pm 20.1 SSE 12 20 1017.6 - 0.0 - - - - - - -
30/12:00pm 20.4 W 5 8 1018.1 - 0.0 - - - - - - -
30/11:30am 19.9 SSE 7 10 1018.6 - 0.0 - - - - - - -
30/11:00am 20.0 SSW 6 11 1018.7 - 0.0 - - - - - - -
30/10:30am 19.1 SSW 6 11 1018.9 - 0.0 - - - - - - -
30/10:00am 18.8 W 5 7 1019.1 - 0.0 - - - - - - -
30/09:30am 17.4 W 6 10 1019.2 - 0.0 - - - - - - -
30/09:00am 16.7 W 6 9 1019.3 F 0.0 Fine Mostly clear 35 1 3.0 10 SE
30/08:30am 14.9 W 7 9 1019.2 - 0.0 - - - - - - -
30/08:00am 14.0 W 5 8 1019.2 - 0.0 - - - - - - -
30/07:30am 12.7 WSW 5 8 1019.2 - 0.0 - - - - - - -
30/07:00am 11.6 W 5 7 1019.0 - 0.0 - - - - - - -

Other Formats:

Comma delimited format used in spreadsheet applications
http://www.bom.gov.au/fwo/IDN60701/IDN60701.94589.axf

JavaScript Object Notation format (JSON) in row-major order
http://www.bom.gov.au/fwo/IDN60701/IDN60701.94589.json